CYNR

METAR CYNR 260200Z AUTO 04006KT 9SM CLR 20/10 A2999 RMK AO2 SLP154
METAR
LOCATION
CYNR
DATE - TIME
260200Z
WIND
040 TRUE @ 6 KNOTS
VISIBILITY
9SM
RUNWAY VISUAL RANGE
NOT REPORTED
WEATHER
CLOUDINESS
CLR
TEMP / DEWPOINT
20 ºC / 10 ºC
ALTIMETER
29.99 in. Hg
RECENT WEATHER
NOT REPORTED
WIND SHEAR
NOT REPORTED
REMARKS
RMK AO2 SLP154
SEA LEVEL PRESSURE: hPa

CYNR

METAR CYNR 260100Z AUTO 06003KT 9SM CLR 21/11 A2999 RMK AO2 SLP152
METAR
LOCATION
CYNR
DATE - TIME
260100Z
WIND
060 TRUE @ 3 KNOTS
VISIBILITY
9SM
RUNWAY VISUAL RANGE
NOT REPORTED
WEATHER
CLOUDINESS
CLR
TEMP / DEWPOINT
21 ºC / 11 ºC
ALTIMETER
29.99 in. Hg
RECENT WEATHER
NOT REPORTED
WIND SHEAR
NOT REPORTED
REMARKS
RMK AO2 SLP152
SEA LEVEL PRESSURE: hPa

CYNR

METAR CYNR 260000Z AUTO 07004KT 030V100 9SM CLR 22/10 A2999 RMK AO2 SLP152
METAR
LOCATION
CYNR
DATE - TIME
260000Z
WIND
070 TRUE @ 4 KNOTS VARYING 030 TO 100
VISIBILITY
9SM
RUNWAY VISUAL RANGE
NOT REPORTED
WEATHER
CLOUDINESS
CLR
TEMP / DEWPOINT
22 ºC / 10 ºC
ALTIMETER
29.99 in. Hg
RECENT WEATHER
NOT REPORTED
WIND SHEAR
NOT REPORTED
REMARKS
RMK AO2 SLP152
SEA LEVEL PRESSURE: hPa

Your time UTC time
 
 
Weather data provided by AXYS Technologies Inc., www.axystechnologies.com
 
Station History